Page, ND (58064)

8:37 AM CDT on July 06, 2015 (GMT -0500)
Home of the Absaraka Crows | | Change Station
CLOSE
Current Station
Personal Weather Station
Location: Absaraka, ND
Elevation: 1066 ft
Nearby Weather Stations

Elev 1066 ft 46.98 °N, 97.39 °W | Updated 11 seconds ago

Clear
Clear
61.9 °F
Feels Like 61.9 °F
N
2.2
Wind Variable Wind from NE
Gusts 5.4 mph

Today
High -- | Low -- °F
--% Chance of Precip.
Yesterday
High -- | Low -- °F
Precip. -- in
5:42 AM 9:28 PM
Waning Gibbous, 75% visible
Pressure 30.07 in
Visibility 10.0 miles
Clouds Clear
Dew Point 56 °F
Humidity 81%
Rainfall 0.00 in
Snow Depth Not available.
UV 2 out of 12
Pollen .60 out of 12
Air Quality Not available.
Flu Activity Not available.
METAR KBAC 061315Z AUTO 36009G17KT 340V040 10SM CLR 14/09 A3007 RMK AO2

More Conditions Fewer Conditions

Pressure 30.07 in
Visibility 10.0 miles
Clouds Clear
Dew Point 56 °F
Humidity 81%
Rainfall 0.00 in
Snow Depth Not available.
UV 2 out of 12
Pollen .60 out of 12
Air Quality Not available.
Flu Activity Not available.
METAR KBAC 061315Z AUTO 36009G17KT 340V040 10SM CLR 14/09 A3007 RMK AO2

More Conditions Fewer Conditions

10-Day Weather Forecast

×

Almanac

Astronomy

Jul. 06, 2015 Rise Set
Actual Time
Civil Twilight
Nautical Twilight
Astronomical Twilight
Moon
Length of Visible Light
Length of Day
Tomorrow will be .
, % of the Moon is Illuminated

Today's Extremes

State Highs State Lows

Community

WunderPhotos

Upload Photos

1,835,558 photos uploaded!

WunderBlogs® & News

Nearby

Air Quality

  Air Quality AQ Index Pollutant
Not available.

Snow Depth

Station Depth Elevation

Earthquake Activity

City Distance Mag. Time & Date
Minimum magnitude displayed is 2.5.

Coastal Water Temperatures

Place Temperature

Stations

Nearby Weather Stations

Station Location Temp. Windchill Dew Point Humidity Wind Precip. Elev Updated Type